createdAt,value
2022-08-09T00:00:11.245Z,20.91
2022-08-09T00:02:43.022Z,21.00
2022-08-09T00:06:19.833Z,21.04
2022-08-09T00:08:09.658Z,21.13
2022-08-09T00:10:41.977Z,21.13
2022-08-09T00:13:16.706Z,21.12
2022-08-09T00:15:59.870Z,21.19
2022-08-09T00:18:34.954Z,21.24
2022-08-09T00:21:07.799Z,21.33
2022-08-09T00:23:55.721Z,21.45
2022-08-09T00:26:30.158Z,21.56
2022-08-09T00:29:02.575Z,21.61
2022-08-09T00:31:58.459Z,21.59
2022-08-09T00:34:19.875Z,21.44
2022-08-09T00:36:52.131Z,21.22
2022-08-09T00:40:12.636Z,20.95
2022-08-09T00:44:14.428Z,20.76
2022-08-09T00:44:56.620Z,20.45
2022-08-09T00:47:25.351Z,20.32
2022-08-09T00:49:56.905Z,20.09
2022-08-09T00:52:29.986Z,19.91
2022-08-09T00:55:02.713Z,19.76
2022-08-09T00:57:34.400Z,19.63
2022-08-09T01:00:21.657Z,19.55
2022-08-09T01:03:02.667Z,19.44
2022-08-09T01:05:51.548Z,19.35
2022-08-09T01:08:28.119Z,19.19
2022-08-09T01:11:22.209Z,19.15
2022-08-09T01:14:02.831Z,19.05
2022-08-09T01:16:38.856Z,18.98
2022-08-09T01:19:39.898Z,18.89
2022-08-09T01:22:26.115Z,18.83
2022-08-09T01:25:24.746Z,18.83
2022-08-09T01:27:57.047Z,18.81
2022-08-09T01:30:35.465Z,18.80
2022-08-09T01:33:06.254Z,18.81
2022-08-09T01:35:51.858Z,18.78
2022-08-09T01:38:25.590Z,18.77
2022-08-09T01:41:16.162Z,18.75
2022-08-09T01:43:52.691Z,18.75
2022-08-09T01:46:51.380Z,18.87
2022-08-09T01:49:24.170Z,18.94
2022-08-09T01:51:55.611Z,19.07
2022-08-09T01:54:33.632Z,19.29
2022-08-09T01:57:08.170Z,19.59
2022-08-09T01:59:50.868Z,19.69
2022-08-09T02:02:31.147Z,19.58
2022-08-09T02:05:05.683Z,19.47
2022-08-09T02:08:41.309Z,19.29
2022-08-09T02:10:56.451Z,19.10
2022-08-09T02:13:37.419Z,18.97
2022-08-09T02:16:11.412Z,18.85
2022-08-09T02:18:42.839Z,18.72
2022-08-09T02:21:22.369Z,18.58
2022-08-09T02:24:01.953Z,18.48
2022-08-09T02:26:35.510Z,18.39
2022-08-09T02:29:15.380Z,18.30
2022-08-09T02:31:47.573Z,18.22
2022-08-09T02:34:40.572Z,18.13
2022-08-09T02:37:15.369Z,18.13
2022-08-09T02:39:49.813Z,18.36
2022-08-09T02:42:28.918Z,18.66
2022-08-09T02:45:11.706Z,18.69
2022-08-09T02:47:46.363Z,18.53
2022-08-09T02:51:07.763Z,18.47
2022-08-09T02:53:43.162Z,18.35
2022-08-09T02:56:29.503Z,18.24
2022-08-09T02:58:58.411Z,18.24
2022-08-09T03:01:42.562Z,18.16
2022-08-09T03:04:19.397Z,18.06
2022-08-09T03:06:49.284Z,17.93
2022-08-09T03:09:21.377Z,17.85
2022-08-09T03:12:06.162Z,17.77
2022-08-09T03:14:38.266Z,17.70
2022-08-09T03:17:20.344Z,17.63
2022-08-09T03:20:00.222Z,17.54
2022-08-09T03:22:34.322Z,17.49
2022-08-09T03:25:26.124Z,17.43
2022-08-09T03:28:01.655Z,17.36
2022-08-09T03:30:33.384Z,17.28
2022-08-09T03:33:17.502Z,17.23
2022-08-09T03:36:13.665Z,17.19
2022-08-09T03:38:42.588Z,17.14
2022-08-09T03:41:16.633Z,17.11
2022-08-09T03:44:07.586Z,17.11
2022-08-09T03:46:36.094Z,17.11
2022-08-09T03:49:08.090Z,17.08
2022-08-09T03:51:56.819Z,17.02
2022-08-09T03:54:29.662Z,16.98
2022-08-09T03:57:02.093Z,16.94
2022-08-09T03:59:53.733Z,16.91
2022-08-09T04:02:26.400Z,16.88
2022-08-09T04:04:57.191Z,16.85
2022-08-09T04:07:47.478Z,16.84
2022-08-09T04:10:20.403Z,16.84
2022-08-09T04:12:51.603Z,16.87
2022-08-09T04:15:40.591Z,16.86
2022-08-09T04:18:16.453Z,16.84
2022-08-09T04:20:47.202Z,16.81
2022-08-09T04:23:17.153Z,16.81
2022-08-09T04:25:51.981Z,16.79
2022-08-09T04:28:33.789Z,16.83
2022-08-09T04:31:09.192Z,16.86
2022-08-09T04:33:52.333Z,16.89
2022-08-09T04:36:31.629Z,16.89
2022-08-09T04:39:02.530Z,16.86
2022-08-09T04:41:32.202Z,17.05
2022-08-09T04:44:07.129Z,17.15
2022-08-09T04:46:59.010Z,17.20
2022-08-09T04:49:40.235Z,17.20
2022-08-09T04:52:18.374Z,17.17
2022-08-09T04:54:52.459Z,17.19
2022-08-09T04:57:24.155Z,17.25
2022-08-09T04:59:53.654Z,17.29
2022-08-09T05:02:21.350Z,17.33
2022-08-09T05:04:55.222Z,17.34
2022-08-09T05:07:23.707Z,17.35
2022-08-09T05:09:51.961Z,17.35
2022-08-09T05:12:22.565Z,17.38
2022-08-09T05:14:50.456Z,17.42
2022-08-09T05:18:50.702Z,17.49
2022-08-09T05:20:07.617Z,17.54
2022-08-09T05:23:56.598Z,17.86
2022-08-09T05:25:24.205Z,18.00
2022-08-09T05:27:55.324Z,18.04
2022-08-09T05:30:23.286Z,17.99
2022-08-09T05:32:53.355Z,17.95
2022-08-09T05:35:22.359Z,17.94
2022-08-09T05:37:50.539Z,17.92
2022-08-09T05:40:18.859Z,17.94
2022-08-09T05:42:47.500Z,17.98
2022-08-09T05:45:15.223Z,18.04
2022-08-09T05:47:51.483Z,18.20
2022-08-09T05:50:25.686Z,18.25
2022-08-09T05:53:03.125Z,18.39
2022-08-09T05:55:31.506Z,18.49
2022-08-09T05:57:59.430Z,18.53
2022-08-09T06:00:30.082Z,18.69
2022-08-09T06:03:03.707Z,18.77
2022-08-09T06:05:50.617Z,18.94
2022-08-09T06:08:24.617Z,19.15
2022-08-09T06:10:58.011Z,19.32
2022-08-09T06:13:28.714Z,19.42
2022-08-09T06:16:04.965Z,19.46
2022-08-09T06:18:33.558Z,19.52
2022-08-09T06:21:02.331Z,19.56
2022-08-09T06:23:57.553Z,19.62
2022-08-09T06:26:22.185Z,19.72
2022-08-09T06:29:00.524Z,19.82
2022-08-09T06:31:39.249Z,19.91
2022-08-09T06:34:19.929Z,19.98
2022-08-09T06:36:50.992Z,20.01
2022-08-09T06:39:29.480Z,20.05
2022-08-09T06:42:15.457Z,20.09
2022-08-09T06:44:43.478Z,20.12
2022-08-09T06:47:11.241Z,20.17
2022-08-09T06:50:11.999Z,20.22
2022-08-09T06:52:28.051Z,20.26
2022-08-09T06:54:55.710Z,20.31
2022-08-09T06:57:25.835Z,20.31
2022-08-09T07:00:50.247Z,20.35
2022-08-09T07:02:59.242Z,20.41
2022-08-09T07:06:02.684Z,20.54
2022-08-09T07:08:14.952Z,20.62
2022-08-09T07:10:42.680Z,20.75
2022-08-09T07:13:27.522Z,20.90
2022-08-09T07:16:41.316Z,20.97
2022-08-09T07:18:44.739Z,21.05
2022-08-09T07:21:15.343Z,21.09
2022-08-09T07:23:56.600Z,21.17
2022-08-09T07:26:26.668Z,21.23
2022-08-09T07:29:09.328Z,21.31
2022-08-09T07:31:45.175Z,21.39
2022-08-09T07:34:20.543Z,21.44
2022-08-09T07:36:50.375Z,21.50
2022-08-09T07:39:40.940Z,21.55
2022-08-09T07:42:08.514Z,21.61
2022-08-09T07:44:52.494Z,21.69
2022-08-09T07:47:23.540Z,21.72
2022-08-09T07:50:04.314Z,21.78
2022-08-09T07:52:35.646Z,21.85
2022-08-09T07:55:09.657Z,21.92
2022-08-09T07:57:46.658Z,21.97
2022-08-09T08:00:20.530Z,22.02
2022-08-09T08:03:08.040Z,22.07
2022-08-09T08:05:53.477Z,22.17
2022-08-09T08:09:02.413Z,22.23
2022-08-09T08:12:09.230Z,22.30
2022-08-09T08:13:58.029Z,22.37
2022-08-09T08:16:30.009Z,22.47
2022-08-09T08:19:03.067Z,22.54
2022-08-09T08:21:32.427Z,22.61
2022-08-09T08:24:01.408Z,22.70
2022-08-09T08:26:55.126Z,22.78
2022-08-09T08:29:27.705Z,22.88
2022-08-09T08:32:03.455Z,22.97
2022-08-09T08:34:31.970Z,23.03
2022-08-09T08:37:02.164Z,23.08
2022-08-09T08:39:32.943Z,23.14
2022-08-09T08:42:08.176Z,23.21
2022-08-09T08:44:37.967Z,23.28
2022-08-09T08:47:13.044Z,23.40
2022-08-09T08:49:48.038Z,23.47
2022-08-09T08:55:07.253Z,23.59
2022-08-09T08:57:37.129Z,23.67
2022-08-09T09:00:17.166Z,23.73
2022-08-09T09:02:52.569Z,23.80
2022-08-09T09:05:33.015Z,23.87
2022-08-09T09:08:30.488Z,23.93
2022-08-09T09:11:05.459Z,24.00
2022-08-09T09:13:55.759Z,24.04
2022-08-09T09:16:35.817Z,24.09
2022-08-09T09:19:37.318Z,24.14
2022-08-09T09:22:04.123Z,24.17
2022-08-09T09:24:37.959Z,24.19
2022-08-09T09:27:08.537Z,24.23
2022-08-09T09:30:11.563Z,24.29
2022-08-09T09:32:34.188Z,24.32
2022-08-09T09:35:03.126Z,24.36
2022-08-09T09:37:37.611Z,24.43
2022-08-09T09:40:09.595Z,24.50
2022-08-09T09:42:37.414Z,24.53
2022-08-09T09:45:09.445Z,24.56
2022-08-09T09:47:58.301Z,24.50
2022-08-09T09:50:51.141Z,24.47
2022-08-09T09:53:57.798Z,24.51
2022-08-09T09:56:30.844Z,24.55
2022-08-09T09:58:59.504Z,24.59
2022-08-09T10:01:36.711Z,24.66
2022-08-09T10:04:09.755Z,24.75
2022-08-09T10:06:47.232Z,24.83
2022-08-09T10:09:22.712Z,24.89
2022-08-09T10:12:12.124Z,24.98
2022-08-09T10:14:51.953Z,25.05
2022-08-09T10:17:51.283Z,25.12
2022-08-09T10:20:27.316Z,25.22
2022-08-09T10:23:21.083Z,25.30
2022-08-09T10:26:07.257Z,25.37
2022-08-09T10:28:39.099Z,25.40
2022-08-09T10:34:09.775Z,25.47
2022-08-09T10:36:39.818Z,25.52
2022-08-09T10:39:15.688Z,25.55
2022-08-09T10:41:47.951Z,25.60
2022-08-09T10:44:23.148Z,25.66
2022-08-09T10:48:17.414Z,25.69
2022-08-09T10:50:31.476Z,25.74
2022-08-09T10:53:23.098Z,25.78
2022-08-09T10:55:58.699Z,25.83
2022-08-09T10:58:37.362Z,25.87
2022-08-09T11:03:02.203Z,25.91
2022-08-09T11:04:29.679Z,25.96
2022-08-09T11:07:00.560Z,26.01
2022-08-09T11:09:47.542Z,26.05
2022-08-09T11:12:22.842Z,26.06
2022-08-09T11:15:23.975Z,26.06
2022-08-09T11:18:02.890Z,26.09
2022-08-09T11:20:49.637Z,26.12
2022-08-09T11:23:23.927Z,26.17
2022-08-09T11:25:57.596Z,26.18
2022-08-09T11:28:55.937Z,26.19
2022-08-09T11:31:52.629Z,26.18
2022-08-09T11:34:34.939Z,26.24
2022-08-09T11:37:07.431Z,26.23
2022-08-09T11:40:02.876Z,26.24
2022-08-09T11:42:43.013Z,26.27
2022-08-09T11:45:43.123Z,26.27
2022-08-09T11:48:26.178Z,26.29
2022-08-09T11:51:38.004Z,26.32
2022-08-09T11:54:27.786Z,26.36
2022-08-09T11:57:59.788Z,26.44
2022-08-09T12:00:27.730Z,26.49
2022-08-09T12:02:57.887Z,26.53
2022-08-09T12:05:39.527Z,26.54
2022-08-09T12:08:12.447Z,26.57
2022-08-09T12:10:56.439Z,26.61
2022-08-09T12:14:08.060Z,26.69
2022-08-09T12:16:38.339Z,26.73
2022-08-09T12:19:12.132Z,26.79
2022-08-09T12:21:50.785Z,26.83
2022-08-09T12:24:25.307Z,26.91
2022-08-09T12:29:14.481Z,26.95
2022-08-09T12:30:01.929Z,27.02
2022-08-09T12:32:48.551Z,27.07
2022-08-09T12:35:19.163Z,27.07
2022-08-09T12:37:51.993Z,27.08
2022-08-09T12:40:24.350Z,27.14
2022-08-09T12:42:53.015Z,27.15
2022-08-09T12:45:32.206Z,27.16
2022-08-09T12:48:04.399Z,27.17
2022-08-09T12:50:33.082Z,27.15
2022-08-09T12:53:09.001Z,27.12
2022-08-09T12:56:12.894Z,27.01
2022-08-09T12:58:34.429Z,26.88
2022-08-09T13:01:22.111Z,26.84
2022-08-09T13:04:12.179Z,26.82
2022-08-09T13:06:57.065Z,26.80
2022-08-09T13:09:27.428Z,26.76
2022-08-09T13:12:06.589Z,26.66
2022-08-09T13:14:41.458Z,26.61
2022-08-09T13:17:43.989Z,26.56
2022-08-09T13:20:14.435Z,26.50
2022-08-09T13:23:04.905Z,26.41
2022-08-09T13:25:53.216Z,26.30
2022-08-09T13:28:34.168Z,26.24
2022-08-09T13:32:20.059Z,26.22
2022-08-09T13:34:03.614Z,26.22
2022-08-09T13:36:40.956Z,26.18
2022-08-09T13:41:17.773Z,26.20
2022-08-09T13:42:03.526Z,26.23
2022-08-09T13:44:32.659Z,26.22
2022-08-09T13:47:29.012Z,26.23
2022-08-09T13:49:56.237Z,26.19
2022-08-09T13:52:25.436Z,26.12
2022-08-09T13:55:00.197Z,26.13
2022-08-09T13:57:39.903Z,26.09
2022-08-09T14:00:20.034Z,26.03
2022-08-09T14:03:03.188Z,26.00
2022-08-09T14:06:00.617Z,25.98
2022-08-09T14:08:28.316Z,25.95
2022-08-09T14:10:57.034Z,25.93
2022-08-09T14:14:15.566Z,25.95
2022-08-09T14:16:19.678Z,25.98
2022-08-09T14:18:58.268Z,25.97
2022-08-09T14:21:29.440Z,25.96
2022-08-09T14:24:01.355Z,26.00
2022-08-09T14:26:37.969Z,26.02
2022-08-09T14:30:18.541Z,25.97
2022-08-09T14:31:57.556Z,25.96
2022-08-09T14:34:31.165Z,25.92
2022-08-09T14:37:07.575Z,25.89
2022-08-09T14:39:47.419Z,25.93
2022-08-09T14:42:32.193Z,25.93
2022-08-09T14:46:39.116Z,25.87
2022-08-09T14:47:58.636Z,25.88
2022-08-09T14:50:31.453Z,25.89
2022-08-09T14:53:00.771Z,25.92
2022-08-09T14:55:32.803Z,25.95
2022-08-09T14:58:05.448Z,25.99
2022-08-09T15:00:37.074Z,26.03
2022-08-09T15:03:09.037Z,26.10
2022-08-09T15:05:39.996Z,26.18
2022-08-09T15:08:19.309Z,26.23
2022-08-09T15:11:00.341Z,26.29
2022-08-09T15:13:48.143Z,26.32
2022-08-09T15:16:17.880Z,26.33
2022-08-09T15:18:49.123Z,26.38
2022-08-09T15:21:57.167Z,26.39
2022-08-09T15:24:12.135Z,26.43
2022-08-09T15:26:45.299Z,26.50
2022-08-09T15:30:56.813Z,26.54
2022-08-09T15:32:02.400Z,26.58
2022-08-09T15:34:33.247Z,26.65
2022-08-09T15:37:04.459Z,26.68
2022-08-09T15:39:48.751Z,26.72
2022-08-09T15:42:21.904Z,26.80
2022-08-09T15:44:49.957Z,26.88
2022-08-09T15:47:22.830Z,26.90
2022-08-09T15:50:04.915Z,26.93
2022-08-09T15:52:37.890Z,26.97
2022-08-09T15:55:08.732Z,27.01
2022-08-09T15:57:44.213Z,27.09
2022-08-09T16:00:25.564Z,27.14
2022-08-09T16:02:56.544Z,27.19
2022-08-09T16:05:47.429Z,27.24
2022-08-09T16:08:29.550Z,27.28
2022-08-09T16:10:59.563Z,27.33
2022-08-09T16:14:03.717Z,27.37
2022-08-09T16:16:18.556Z,27.40
2022-08-09T16:18:47.039Z,27.42
2022-08-09T16:21:17.195Z,27.43
2022-08-09T16:23:55.080Z,27.44
2022-08-09T16:26:33.997Z,27.43
2022-08-09T16:29:14.513Z,27.43
2022-08-09T16:32:18.709Z,27.40
2022-08-09T16:34:54.930Z,27.42
2022-08-09T16:37:56.084Z,27.45
2022-08-09T16:40:10.995Z,27.47
2022-08-09T16:42:44.985Z,27.44
2022-08-09T16:45:15.815Z,27.42
2022-08-09T16:48:38.849Z,27.40
2022-08-09T16:50:34.240Z,27.40
2022-08-09T16:53:05.604Z,27.41
2022-08-09T16:56:01.365Z,27.39
2022-08-09T16:58:21.827Z,27.36
2022-08-09T17:00:50.308Z,27.33
2022-08-09T17:03:21.731Z,27.25
2022-08-09T17:06:07.687Z,27.26
2022-08-09T17:08:58.915Z,27.26
2022-08-09T17:11:40.150Z,27.22
2022-08-09T17:14:26.057Z,27.16
2022-08-09T17:16:59.467Z,27.12
2022-08-09T17:19:47.517Z,27.05
2022-08-09T17:22:16.358Z,26.96
2022-08-09T17:24:54.917Z,26.88
2022-08-09T17:27:23.784Z,26.78
2022-08-09T17:29:52.183Z,26.66
2022-08-09T17:32:34.886Z,26.57
2022-08-09T17:35:11.717Z,26.50
2022-08-09T17:38:10.213Z,26.39
2022-08-09T17:40:32.632Z,26.32
2022-08-09T17:43:11.170Z,26.25
2022-08-09T17:46:03.612Z,26.24
2022-08-09T17:48:51.949Z,26.21
2022-08-09T17:51:21.409Z,26.16
2022-08-09T17:53:52.999Z,26.12
2022-08-09T17:56:35.878Z,26.08
2022-08-09T17:59:11.425Z,26.04
2022-08-09T18:02:07.786Z,26.00
2022-08-09T18:04:32.436Z,25.95
2022-08-09T18:07:04.643Z,25.92
2022-08-09T18:09:41.071Z,25.88
2022-08-09T18:12:14.913Z,25.83
2022-08-09T18:14:50.041Z,25.77
2022-08-09T18:17:27.528Z,25.72
2022-08-09T18:20:58.763Z,25.69
2022-08-09T18:23:04.711Z,25.63
2022-08-09T18:25:50.664Z,25.56
2022-08-09T18:30:35.368Z,25.53
2022-08-09T18:31:08.815Z,25.46
2022-08-09T18:33:37.201Z,25.39
2022-08-09T18:36:08.368Z,25.34
2022-08-09T18:38:42.206Z,25.27
2022-08-09T18:41:10.254Z,25.20
2022-08-09T18:43:53.067Z,25.15
2022-08-09T18:46:47.971Z,25.09
2022-08-09T18:49:09.086Z,25.04
2022-08-09T18:51:38.587Z,24.97
2022-08-09T18:54:28.790Z,24.92
2022-08-09T18:57:05.907Z,24.87
2022-08-09T18:59:37.310Z,24.83
2022-08-09T19:02:16.477Z,24.76
2022-08-09T19:04:47.754Z,24.70
2022-08-09T19:07:32.157Z,24.65
2022-08-09T19:10:16.586Z,24.61
2022-08-09T19:13:04.670Z,24.56
2022-08-09T19:15:33.824Z,24.52
2022-08-09T19:18:01.927Z,24.47
2022-08-09T19:20:34.110Z,24.43
2022-08-09T19:23:06.807Z,24.39
2022-08-09T19:26:01.521Z,24.36
2022-08-09T19:28:22.735Z,24.31
2022-08-09T19:30:56.713Z,24.26
2022-08-09T19:33:24.803Z,24.21
2022-08-09T19:35:58.467Z,24.16
2022-08-09T19:38:27.250Z,24.11
2022-08-09T19:40:55.586Z,24.07
2022-08-09T19:44:01.917Z,24.00
2022-08-09T19:46:14.551Z,23.97
2022-08-09T19:49:01.559Z,23.92
2022-08-09T19:51:30.915Z,23.91
2022-08-09T19:54:02.591Z,23.87
2022-08-09T19:56:34.537Z,23.83
2022-08-09T19:59:40.490Z,23.81
2022-08-09T20:02:04.641Z,23.76
2022-08-09T20:04:40.458Z,23.75
2022-08-09T20:07:21.090Z,23.72
2022-08-09T20:09:50.362Z,23.70
2022-08-09T20:12:31.647Z,23.68
2022-08-09T20:16:31.517Z,23.65
2022-08-09T20:17:55.025Z,23.61
2022-08-09T20:20:24.777Z,23.57
2022-08-09T20:22:56.287Z,23.54
2022-08-09T20:25:24.457Z,23.52
2022-08-09T20:27:53.198Z,23.49
2022-08-09T20:30:25.031Z,23.45
2022-08-09T20:32:53.031Z,23.42
2022-08-09T20:35:22.342Z,23.39
2022-08-09T20:38:21.049Z,23.36
2022-08-09T20:40:38.233Z,23.30
2022-08-09T20:43:19.176Z,23.25
2022-08-09T20:46:00.705Z,23.25
2022-08-09T20:48:40.710Z,23.21
2022-08-09T20:51:16.770Z,23.19
2022-08-09T20:53:48.890Z,23.16
2022-08-09T20:56:20.698Z,23.14
2022-08-09T20:58:54.539Z,23.11
2022-08-09T21:01:34.342Z,23.10
2022-08-09T21:05:56.105Z,23.09
2022-08-09T21:07:13.138Z,23.08
2022-08-09T21:09:56.382Z,23.08
2022-08-09T21:12:32.138Z,23.05
2022-08-09T21:15:17.313Z,23.03
2022-08-09T21:18:29.880Z,23.01
2022-08-09T21:20:39.495Z,23.02
2022-08-09T21:23:08.887Z,23.00
2022-08-09T21:25:55.706Z,23.01
2022-08-09T21:28:35.851Z,22.98
2022-08-09T21:31:17.612Z,22.98
2022-08-09T21:33:50.374Z,22.99
2022-08-09T21:36:20.023Z,22.98
2022-08-09T21:38:51.003Z,22.96
2022-08-09T21:41:53.443Z,22.98
2022-08-09T21:44:15.391Z,22.96
2022-08-09T21:47:00.500Z,22.94
2022-08-09T21:49:29.585Z,22.93
2022-08-09T21:52:15.010Z,22.95
2022-08-09T21:54:51.123Z,22.93
2022-08-09T21:57:38.301Z,22.92
2022-08-09T22:00:34.161Z,22.91
2022-08-09T22:03:06.389Z,22.88
2022-08-09T22:05:41.659Z,22.86
2022-08-09T22:08:14.821Z,22.85
2022-08-09T22:11:49.238Z,22.84
2022-08-09T22:13:36.900Z,22.81
2022-08-09T22:16:09.379Z,22.80
2022-08-09T22:18:53.594Z,22.77
2022-08-09T22:21:27.550Z,22.75
2022-08-09T22:24:16.587Z,22.75
2022-08-09T22:26:51.177Z,22.71
2022-08-09T22:29:24.030Z,22.70
2022-08-09T22:31:57.454Z,22.69
2022-08-09T22:34:29.258Z,22.67
2022-08-09T22:36:58.405Z,22.66
2022-08-09T22:39:55.929Z,22.65
2022-08-09T22:42:22.349Z,22.64
2022-08-09T22:45:02.328Z,22.60
2022-08-09T22:48:13.314Z,22.58
2022-08-09T22:50:32.855Z,22.55
2022-08-09T22:53:03.825Z,22.51
2022-08-09T22:56:06.375Z,22.50
2022-08-09T22:58:32.249Z,22.49
2022-08-09T23:01:05.850Z,22.45
2022-08-09T23:04:05.244Z,22.40
2022-08-09T23:06:29.855Z,22.38
2022-08-09T23:09:04.642Z,22.39
2022-08-09T23:11:32.366Z,22.39
2022-08-09T23:14:00.715Z,22.33
2022-08-09T23:16:28.410Z,22.31
2022-08-09T23:18:56.109Z,22.31
2022-08-09T23:21:25.965Z,22.31
2022-08-09T23:24:05.019Z,22.30
2022-08-09T23:26:33.563Z,22.25
2022-08-09T23:29:01.314Z,22.23
2022-08-09T23:31:29.099Z,22.19
2022-08-09T23:33:56.839Z,22.19
2022-08-09T23:36:24.508Z,22.12
2022-08-09T23:38:52.245Z,22.07
2022-08-09T23:41:27.793Z,22.06
2022-08-09T23:43:58.587Z,22.03
2022-08-09T23:46:26.454Z,22.02
2022-08-09T23:48:54.426Z,22.01
2022-08-09T23:51:22.278Z,21.93
2022-08-09T23:53:52.411Z,21.93
2022-08-09T23:56:53.082Z,21.95
2022-08-09T23:59:08.543Z,21.94
